Terminal Aerodrome Forecast
Issued by NWS

Home | Current Version | Previous Version | Text Only | Print | Product List | Glossary On
Versions: 1 2 3 4 5 6 7 8 9 10 11 12 13 14 15 16 17 18 19 20 21 22 23 24 25 26 27 28 29 30 31 32 33 34 35 36
000
FTUS43 KLOT 221700
TAFDPA
TAF
KDPA 221731Z 2218/2318 25008KT P6SM SCT020 BKN035
     FM222200 VRB06KT P6SM VCTS SCT025 BKN040CB
     FM230100 08004KT P6SM SCT040 BKN200
     FM230700 07003KT 4SM BR BKN006
     FM231400 10006KT P6SM SCT010 BKN200=

USA.gov is the U.S. government's official web portal to all federal, state and local government web resources and services.